• Join FlightAware (Why Join?)
  • Login
  • US Flag 
12:20AM EDT


 

Airport Tracker/Info


-or-


 

Live Flight TrackerFlight Track Log ✈ FDX1404 ✈ 27-Sep-2013 ✈ KMEM - KLAX

Flight Track Log - Related Links

Times and Time Zones

All times are in EDT time to prevent confusion due to time zone crossing. See the FDX1404 flight status page for this flight to view local times or setup timezone preferences in your user account.

Time Position Orientation Groundspeed Altitude Reporting Facility
EDT Latitude Longitude Course Direction KTS MPH feet Rate Location/Type
06:50AM 34.9400 -90.0250 247° West 264 304 4,600  Level FlightAware
06:50AM 34.9380 -90.0470 264° West 273 314 5,300 3,120 Climbing FlightAware
06:50AM 34.9380 -90.0660 270° West 277 319 5,900 2,880 Climbing FlightAware
06:50AM 34.9390 -90.0910 273° West 283 326 6,700 3,000 Climbing FlightAware
06:51AM 34.9440 -90.1350 278° West 291 335 8,100 3,120 Climbing FlightAware
06:51AM 34.9490 -90.1620 283° West 294 338 9,000 2,460 Climbing FlightAware
06:52AM 34.9610 -90.2300 282° West 328 377 10,400 1,080 Climbing FlightAware
06:52AM 34.9710 -90.3110 279° West 353 406 10,600 120 Climbing FlightAware
06:53AM 34.9780 -90.3710 278° West 353 406 10,600 2,100 Level FlightAware
06:54AM 34.9900 -90.4980 277° West 403 464 13,600 2,160 Climbing FlightAware
06:54AM 34.9960 -90.5640 276° West 403 464 13,600 3,000 Level FlightAware
06:55AM 35.0100 -90.6800 278° West 422 486 17,300 4,140 Climbing FlightAware
06:56AM 35.0190 -90.7560 278° West 429 494 18,500 1,260 Climbing FlightAware
06:56AM 35.0270 -90.8350 269° West 431 496 18,800 1,860 Climbing FlightAware
06:57AM 35.0230 -90.9330 267° West 443 510 20,800 2,760 Climbing FlightAware
06:57AM 35.0210 -91.0130 268° West 445 512 21,900 1,740 Climbing FlightAware
06:58AM 35.0190 -91.1060 269° West 452 520 22,900 1,500 Climbing FlightAware
06:58AM 35.0180 -91.2020 269° West 461 531 23,800 1,560 Climbing FlightAware
06:59AM 35.0160 -91.2880 268° West 466 536 24,700 1,440 Climbing FlightAware
07:00AM 35.0140 -91.3800 269° West 470 541 25,500 1,260 Climbing FlightAware
07:00AM 35.0120 -91.4810 269° West 476 548 26,300 1,380 Climbing FlightAware
07:01AM 35.0100 -91.5680 268° West 480 552 27,100 1,320 Climbing FlightAware
07:01AM 35.0080 -91.6620 269° West 484 557 27,800 1,320 Climbing FlightAware
07:02AM 35.0060 -91.7660 269° West 483 556 28,700 1,620 Climbing FlightAware
07:03AM 35.0030 -91.8550 268° West 479 551 29,700 1,680 Climbing FlightAware
07:03AM 35.0010 -91.9520 269° West 472 543 30,700 1,440 Climbing FlightAware
07:04AM 34.9950 -92.0370 265° West 470 541 31,400 1,080 Climbing FlightAware
07:04AM 34.9820 -92.1390 261° West 472 543 32,000 480 Climbing FlightAware
07:05AM 34.9720 -92.2180 261° West 472 543 32,000  Level FlightAware
07:05AM 34.9600 -92.3150 261° West 470 541 32,000  Level FlightAware
07:06AM 34.9490 -92.4010 261° West 469 540 32,000  Level FlightAware
07:07AM 34.9370 -92.4920 261° West 469 540 32,000  Level FlightAware
07:07AM 34.9240 -92.5890 261° West 470 541 32,000  Level FlightAware
07:08AM 34.9130 -92.6730 261° West 470 541 32,000  Level FlightAware
07:08AM 34.9000 -92.7770 261° West 470 541 32,000  Level FlightAware
07:09AM 34.8890 -92.8560 260° West 471 542 32,000  Level FlightAware
07:10AM 34.8760 -92.9530 261° West 471 542 32,000  Level FlightAware
07:10AM 34.8630 -93.0530 261° West 473 544 32,000  Level FlightAware
07:11AM 34.8470 -93.1710 261° West 473 544 32,000  Level FlightAware
07:11AM 34.8410 -93.2500 265° West 471 542 32,000  Level FlightAware
07:12AM 34.8460 -93.3430 274° West 472 543 32,000  Level FlightAware
07:13AM 34.8510 -93.4300 274° West 472 543 32,000  Level FlightAware
07:13AM 34.8570 -93.5250 274° West 472 543 32,000  Level FlightAware
07:14AM 34.8620 -93.6180 274° West 472 543 32,000  Level FlightAware
07:14AM 34.8680 -93.7160 274° West 471 542 32,000  Level FlightAware
07:15AM 34.8730 -93.8030 274° West 471 542 32,000  Level FlightAware
07:15AM 34.8780 -93.8980 274° West 471 542 32,000  Level FlightAware
07:16AM 34.8840 -94.0140 274° West 472 543 32,000  Level FlightAware
07:17AM 34.8890 -94.1050 274° West 472 543 32,000  Level FlightAware
07:17AM 34.8950 -94.2160 274° West 472 543 32,000  Level FlightAware
07:18AM 34.9000 -94.3090 274° West 471 542 32,000  Level FlightAware
07:19AM 34.9040 -94.3900 273° West 469 540 32,000  Level FlightAware
07:19AM 34.9090 -94.4930 273° West 469 540 32,000  Level FlightAware
07:20AM 34.9130 -94.5790 273° West 469 540 32,000  Level FlightAware
07:20AM 34.9190 -94.6940 274° West 469 540 32,000  Level FlightAware
07:21AM 34.9240 -94.7840 274° West 468 539 32,000  Level FlightAware
07:22AM 34.9280 -94.8760 273° West 468 539 32,000  Level FlightAware
07:22AM 34.9310 -94.9410 273° West 468 539 32,000  Level FlightAware
07:23AM 34.9360 -95.0470 273° West 467 537 32,000  Level FlightAware
07:23AM 34.9410 -95.1600 273° West 466 536 32,000  Level FlightAware
07:24AM 34.9450 -95.2490 273° West 466 536 32,000  Level FlightAware
07:25AM 34.9490 -95.3250 274° West 467 537 32,000  Level FlightAware
07:25AM 34.9520 -95.4080 273° West 467 537 32,000  Level FlightAware
07:26AM 34.9580 -95.5360 273° West 469 540 32,000  Level FlightAware
07:26AM 34.9610 -95.6150 273° West 470 541 32,000  Level FlightAware
07:27AM 34.9650 -95.7210 273° West 469 540 32,000  Level FlightAware
07:28AM 34.9690 -95.8130 273° West 469 540 32,000  Level FlightAware
07:28AM 34.9730 -95.9100 273° West 469 540 32,000  Level FlightAware
07:29AM 34.9760 -95.9890 273° West 468 539 32,000  Level FlightAware
07:29AM 34.9800 -96.0970 273° West 467 537 32,000  Level FlightAware
07:30AM 34.9830 -96.1940 272° West 467 537 32,000  Level FlightAware
07:31AM 34.9870 -96.2860 273° West 467 537 32,000  Level FlightAware
07:31AM 34.9900 -96.3730 272° West 466 536 32,000  Level FlightAware
07:32AM 34.9930 -96.4680 272° West 466 536 32,000  Level FlightAware
07:32AM 34.9960 -96.5620 272° West 466 536 32,000  Level FlightAware
07:33AM 34.9990 -96.6510 272° West 465 535 32,000  Level FlightAware
07:34AM 35.0020 -96.7480 272° West 466 536 32,000  Level FlightAware
07:34AM 35.0060 -96.8480 273° West 467 537 32,000  Level FlightAware
07:35AM 35.0090 -96.9660 272° West 466 536 32,000  Level FlightAware
07:35AM 35.0120 -97.0580 272° West 465 535 32,000  Level FlightAware
07:36AM 35.0140 -97.1440 272° West 464 534 32,000  Level FlightAware
07:37AM 35.0170 -97.2390 272° West 463 533 32,000  Level FlightAware
07:37AM 35.0190 -97.3350 271° West 462 532 32,000  Level FlightAware
07:38AM 35.0210 -97.4130 272° West 462 532 32,000  Level FlightAware
07:38AM 35.0240 -97.5090 272° West 462 532 32,000  Level FlightAware
07:39AM 35.0260 -97.6000 272° West 462 532 32,000  Level FlightAware
07:40AM 35.0290 -97.6940 272° West 462 532 32,000  Level FlightAware
07:40AM 35.0310 -97.7900 271° West 461 531 32,000  Level FlightAware
07:41AM 35.0330 -97.8760 272° West 460 529 32,000  Level FlightAware
07:41AM 35.0350 -97.9590 272° West 460 529 32,000  Level FlightAware
07:42AM 35.0370 -98.0540 272° West 458 527 32,000  Level FlightAware
07:42AM 35.0390 -98.1450 272° West 458 527 32,000  Level FlightAware
07:43AM 35.0400 -98.2320 271° West 458 527 32,000  Level FlightAware
07:44AM 35.0420 -98.3230 272° West 458 527 32,000  Level FlightAware
07:44AM 35.0440 -98.4110 272° West 459 528 32,000  Level FlightAware
07:45AM 35.0450 -98.5040 271° West 458 527 32,000  Level FlightAware
07:45AM 35.0470 -98.5990 272° West 458 527 32,000  Level FlightAware
07:46AM 35.0490 -98.6940 272° West 457 526 32,000  Level FlightAware
07:47AM 35.0500 -98.7820 271° West 458 527 32,000  Level FlightAware
07:47AM 35.0510 -98.8780 271° West 459 528 32,000  Level FlightAware
07:48AM 35.0520 -98.9580 271° West 458 527 32,000  Level FlightAware
07:48AM 35.0540 -99.0510 272° West 457 526 32,000  Level FlightAware
07:49AM 35.0550 -99.1380 271° West 457 526 32,000  Level FlightAware
07:49AM 35.0560 -99.2360 271° West 457 526 32,000  Level FlightAware
07:50AM 35.0570 -99.3230 271° West 457 526 32,000  Level FlightAware
07:51AM 35.0570 -99.4070 270° West 457 526 32,000  Level FlightAware
07:51AM 35.0570 -99.4860 270° West 457 526 32,000  Level FlightAware
07:52AM 35.0570 -99.5650 270° West 457 526 32,000  Level FlightAware
07:53AM 35.0600 -99.7070 272° West 456 525 32,000  Level FlightAware
07:53AM 35.0610 -99.8100 271° West 456 525 32,000  Level FlightAware
07:54AM 35.0620 -99.9350 271° West 455 524 32,000  Level FlightAware
07:55AM 35.0620 -100.0140 270° West 455 524 32,000  Level FlightAware
07:55AM 35.0620 -100.0920 270° West 455 524 32,000  Level FlightAware
07:56AM 35.0620 -100.1710 270° West 455 524 32,000  Level FlightAware
07:57AM 35.0620 -100.2500 270° West 455 524 32,000  Level FlightAware
07:57AM 35.0640 -100.3970 271° West 455 524 32,000  Level FlightAware
07:58AM 35.0640 -100.4840 270° West 455 524 32,000  Level FlightAware
07:58AM 35.0640 -100.5630 270° West 455 524 32,000  Level FlightAware
07:59AM 35.0640 -100.6420 270° West 455 524 32,000  Level FlightAware
08:00AM 35.0640 -100.7210 270° West 455 524 32,000  Level FlightAware
08:00AM 35.0640 -100.7990 270° West 455 524 32,000  Level FlightAware
08:01AM 35.0640 -100.8800 270° West 455 524 32,000  Level FlightAware
08:01AM 35.0640 -100.9590 270° West 455 524 32,000  Level FlightAware
08:02AM 35.0640 -101.0400 270° West 455 524 32,000  Level FlightAware
08:03AM 35.0640 -101.1180 270° West 455 524 32,000  Level FlightAware
08:03AM 35.0640 -101.1970 270° West 455 524 32,000  Level FlightAware
08:04AM 35.0640 -101.2760 270° West 455 524 32,000  Level FlightAware
08:04AM 35.0640 -101.3550 270° West 455 524 32,000  Level FlightAware
08:05AM 35.0640 -101.4330 270° West 455 524 32,000  Level FlightAware
08:06AM 35.0640 -101.5120 270° West 455 524 32,000  Level FlightAware
08:06AM 35.0640 -101.5910 270° West 455 524 32,000  Level FlightAware
08:07AM 35.0640 -101.6690 270° West 455 524 32,000  Level FlightAware
08:08AM 35.0553 -102.0044 270° West 451 519 32,000  Level Albuquerque Center
08:09AM 35.0542 -102.1592 270° West 454 522 32,000  Level Albuquerque Center
08:10AM 35.0528 -102.3111 269° West 450 518 32,000  Level Albuquerque Center
08:11AM 35.0503 -102.4625 269° West 447 514 32,000  Level Albuquerque Center
08:12AM 35.0475 -102.6139 269° West 446 513 32,000  Level Albuquerque Center
08:13AM 35.0447 -102.7647 269° West 446 513 32,000  Level Albuquerque Center
08:14AM 35.0431 -102.9147 269° West 444 511 32,000  Level Albuquerque Center
08:15AM 35.0408 -103.0594 269° West 443 510 32,000  Level Albuquerque Center
08:16AM 35.0367 -103.2125 268° West 446 513 32,000  Level Albuquerque Center
08:17AM 35.0339 -103.3653 269° West 447 514 32,000  Level Albuquerque Center
08:18AM 35.0306 -103.5158 268° West 442 509 32,000  Level Albuquerque Center
08:19AM 35.0258 -103.6658 268° West 440 506 32,000  Level Albuquerque Center
08:20AM 35.0219 -103.8167 268° West 439 505 32,000  Level Albuquerque Center
08:21AM 35.0181 -103.9672 268° West 438 504 32,000  Level Albuquerque Center
08:22AM 35.0128 -104.1197 268° West 440 506 32,000  Level Albuquerque Center
08:23AM 35.0069 -104.2739 267° West 444 511 32,000  Level Albuquerque Center
08:24AM 35.0031 -104.4281 268° West 446 513 32,000  Level Albuquerque Center
08:25AM 34.9986 -104.5786 268° West 441 507 32,000  Level Albuquerque Center
08:26AM 34.9956 -104.7033 268° West 439 505 32,000  Level Albuquerque Center
08:27AM 34.9908 -104.8536 268° West 439 505 32,000  Level Albuquerque Center
08:28AM 34.9853 -105.0039 267° West 440 506 32,000  Level Albuquerque Center
08:34AM 34.9490 -105.9060 267° West 436 502 32,000  Level FlightAware
08:34AM 34.9440 -105.9990 266° West 436 502 32,000  Level FlightAware
08:35AM 34.9400 -106.0870 267° West 436 502 32,000  Level FlightAware
08:35AM 34.9360 -106.1760 267° West 437 503 32,000  Level FlightAware
08:36AM 34.9330 -106.2540 267° West 434 499 32,000  Level FlightAware
08:37AM 34.9280 -106.3470 266° West 433 498 32,000  Level FlightAware
08:37AM 34.9240 -106.4340 267° West 432 497 32,000  Level FlightAware
08:38AM 34.9210 -106.5070 267° West 430 495 32,000  Level FlightAware
08:38AM 34.9160 -106.5990 266° West 428 493 32,000  Level FlightAware
08:39AM 34.9120 -106.6810 267° West 429 494 32,000  Level FlightAware
08:40AM 34.9080 -106.7600 266° West 427 491 32,000  Level FlightAware
08:40AM 34.9030 -106.8490 266° West 425 489 32,000  Level FlightAware
08:41AM 34.9000 -106.9250 267° West 423 487 32,000  Level FlightAware
08:41AM 34.8950 -107.0150 266° West 423 487 32,000  Level FlightAware
08:42AM 34.8890 -107.1130 266° West 423 487 32,000  Level FlightAware
08:42AM 34.8850 -107.1870 266° West 423 487 32,000  Level FlightAware
08:43AM 34.8810 -107.2720 267° West 421 484 32,000  Level FlightAware
08:44AM 34.8770 -107.3380 266° West 421 484 32,000  Level FlightAware
08:44AM 34.8720 -107.4290 266° West 413 475 32,000  Level FlightAware
08:45AM 34.8670 -107.5150 266° West 411 473 32,000  Level FlightAware
08:45AM 34.8640 -107.5770 267° West 412 474 32,000  Level FlightAware
08:46AM 34.8590 -107.6480 265° West 412 474 32,000  Level FlightAware
08:47AM 34.8550 -107.7210 266° West 412 474 32,000  Level FlightAware
08:47AM 34.8510 -107.7920 266° West 412 474 32,000  Level FlightAware
08:48AM 34.8470 -107.8630 266° West 412 474 32,000  Level FlightAware
08:48AM 34.8430 -107.9340 266° West 412 474 32,000  Level FlightAware
08:49AM 34.8390 -108.0050 266° West 412 474 32,000  Level FlightAware
08:50AM 34.8350 -108.0760 266° West 412 474 32,000  Level FlightAware
08:50AM 34.8310 -108.1510 266° West 412 474 32,000  Level FlightAware
08:51AM 34.8260 -108.2230 265° West 412 474 32,000  Level FlightAware
08:51AM 34.8220 -108.2940 266° West 412 474 32,000  Level FlightAware
08:52AM 34.8180 -108.3650 266° West 412 474 32,000  Level FlightAware
08:53AM 34.8140 -108.4380 266° West 412 474 32,000  Level FlightAware
08:53AM 34.8100 -108.5090 266° West 412 474 32,000  Level FlightAware
08:54AM 34.8060 -108.5800 266° West 412 474 32,000  Level FlightAware
08:54AM 34.8020 -108.6510 266° West 412 474 32,000  Level FlightAware
08:58AM 34.7510 -109.3190 265° West 410 472 32,000  Level FlightAware
08:58AM 34.7450 -109.3920 264° West 409 471 32,000  Level FlightAware
08:59AM 34.7390 -109.4650 264° West 408 470 32,000  Level FlightAware
09:00AM 34.7330 -109.5350 264° West 408 470 32,000  Level FlightAware
09:00AM 34.7270 -109.6390 266° West 410 472 32,000  Level FlightAware
09:01AM 34.7210 -109.7150 265° West 410 472 32,000  Level FlightAware
09:01AM 34.7150 -109.7980 265° West 408 470 32,000  Level FlightAware
09:02AM 34.7090 -109.8770 265° West 406 467 32,000  Level FlightAware
09:02AM 34.7030 -109.9520 264° West 406 467 32,000  Level FlightAware
09:03AM 34.6970 -110.0340 265° West 407 468 32,000  Level FlightAware
09:04AM 34.6900 -110.1160 264° West 405 466 32,000  Level FlightAware
09:04AM 34.6820 -110.2150 264° West 403 464 32,000  Level FlightAware
09:05AM 34.6760 -110.3050 265° West 401 461 32,000  Level FlightAware
09:06AM 34.6700 -110.3820 265° West 404 465 32,000  Level FlightAware
09:06AM 34.6630 -110.4630 264° West 403 464 32,000  Level FlightAware
09:07AM 34.6560 -110.5440 264° West 402 463 32,000  Level FlightAware
09:07AM 34.6500 -110.6160 264° West 403 464 32,000  Level FlightAware
09:08AM 34.6430 -110.6970 264° West 401 461 32,000  Level FlightAware
09:09AM 34.6370 -110.7820 265° West 401 461 32,000  Level FlightAware
09:09AM 34.6300 -110.8580 264° West 403 464 32,000  Level FlightAware
09:10AM 34.6240 -110.9330 264° West 403 464 32,000  Level FlightAware
09:10AM 34.6160 -111.0180 263° West 402 463 32,000  Level FlightAware
09:11AM 34.6080 -111.1080 264° West 404 465 32,000  Level FlightAware
09:12AM 34.6000 -111.2070 264° West 405 466 32,000  Level FlightAware
09:12AM 34.5930 -111.2890 264° West 406 467 32,000  Level FlightAware
09:13AM 34.5860 -111.3610 263° West 407 468 32,000  Level FlightAware
09:13AM 34.5790 -111.4430 264° West 410 472 32,000  Level FlightAware
09:14AM 34.5720 -111.5160 263° West 410 472 32,000  Level FlightAware
09:15AM 34.5640 -111.6030 264° West 407 468 32,000  Level FlightAware
09:15AM 34.5580 -111.6800 265° West 407 468 32,000  Level FlightAware
09:16AM 34.5500 -111.7670 264° West 409 471 32,000  Level FlightAware
09:16AM 34.5430 -111.8400 263° West 409 471 32,000  Level FlightAware
09:17AM 34.5350 -111.9220 263° West 408 470 32,000  Level FlightAware
09:17AM 34.5290 -111.9940 264° West 407 468 32,000  Level FlightAware
09:18AM 34.5210 -112.0760 263° West 407 468 32,000  Level FlightAware
09:19AM 34.5130 -112.1580 263° West 408 470 32,000  Level FlightAware
09:19AM 34.5050 -112.2440 264° West 408 470 32,000  Level FlightAware
09:20AM 34.4980 -112.3170 263° West 409 471 32,000  Level FlightAware
09:20AM 34.4900 -112.3990 263° West 412 474 32,000  Level FlightAware
09:21AM 34.4830 -112.4730 263° West 412 474 32,000  Level FlightAware
09:22AM 34.4740 -112.5650 263° West 414 476 32,000  Level FlightAware
09:22AM 34.4660 -112.6430 263° West 414 476 32,000  Level FlightAware
09:23AM 34.4580 -112.7170 263° West 417 480 32,000  Level FlightAware
09:23AM 34.4500 -112.8000 263° West 413 475 32,000  Level FlightAware
09:24AM 34.4420 -112.8830 263° West 413 475 32,000  Level FlightAware
09:24AM 34.4340 -112.9540 262° West 411 473 32,000  Level FlightAware
09:25AM 34.4260 -113.0380 263° West 413 475 32,000  Level FlightAware
09:26AM 34.4170 -113.1210 263° West 415 478 32,000  Level FlightAware
09:26AM 34.4090 -113.2040 263° West 414 476 32,000  Level FlightAware
09:27AM 34.4000 -113.2870 263° West 415 478 32,000  Level FlightAware
09:27AM 34.3920 -113.3610 263° West 417 480 32,000  Level FlightAware
09:28AM 34.3840 -113.4400 263° West 418 481 32,000  Level FlightAware
09:29AM 34.3750 -113.5210 262° West 421 484 32,000  Level FlightAware
09:29AM 34.3660 -113.6130 263° West 424 488 32,000  Level FlightAware
09:30AM 34.3570 -113.6880 262° West 425 489 32,000  Level FlightAware
09:30AM 34.3470 -113.7780 262° West 427 491 32,000  Level FlightAware
09:31AM 34.3390 -113.8510 262° West 427 491 32,000  Level FlightAware
09:31AM 34.3300 -113.9370 263° West 429 494 32,000  Level FlightAware
09:32AM 34.3200 -114.0270 262° West 428 493 32,000  Level FlightAware
09:33AM 34.3100 -114.1120 262° West 424 488 32,000  Level FlightAware
09:33AM 34.3030 -114.1820 263° West 420 483 32,000  Level FlightAware
09:34AM 34.2930 -114.2700 262° West 414 476 32,000  Level FlightAware
09:34AM 34.2840 -114.3420 261° West 417 480 32,000  Level FlightAware
09:35AM 34.2750 -114.4230 262° West 418 481 32,000  Level FlightAware
09:36AM 34.2660 -114.5040 262° West 418 481 32,000  Level FlightAware
09:36AM 34.2560 -114.5850 262° West 416 479 32,000  Level FlightAware
09:37AM 34.2470 -114.6650 262° West 413 475 32,000  Level FlightAware
09:37AM 34.2380 -114.7430 262° West 413 475 32,000 -120 Level FlightAware
09:38AM 34.2280 -114.8260 262° West 417 480 31,900 -240 Descending FlightAware
09:39AM 34.2170 -114.9200 262° West 429 494 31,700 -360 Descending FlightAware
09:39AM 34.2080 -114.9910 261° West 431 496 31,500 -360 Descending FlightAware
09:40AM 34.1970 -115.0840 262° West 430 495 31,300 -300 Descending FlightAware
09:40AM 34.1880 -115.1580 262° West 428 493 31,200 -300 Descending FlightAware
09:41AM 34.1780 -115.2380 261° West 428 493 31,000 -360 Descending FlightAware
09:41AM 34.1680 -115.3230 262° West 421 484 30,800 -360 Descending FlightAware
09:42AM 34.1580 -115.4020 261° West 419 482 30,600 -540 Descending FlightAware
09:43AM 34.1480 -115.4860 262° West 417 480 30,200 -480 Descending FlightAware
09:43AM 34.1370 -115.5740 261° West 407 468 30,000 -180 Descending FlightAware
09:44AM 34.1280 -115.6440 261° West 412 474 30,000  Level FlightAware
09:44AM 34.1190 -115.7220 262° West 417 480 30,000  Level FlightAware
09:45AM 34.1080 -115.8060 261° West 422 486 30,000  Level FlightAware
09:45AM 34.0960 -115.8850 260° West 424 488 30,000  Level FlightAware
09:46AM 34.0830 -115.9690 259° West 425 489 30,000  Level FlightAware
09:47AM 34.0690 -116.0620 260° West 422 486 30,000  Level FlightAware
09:47AM 34.0590 -116.1300 260° West 421 484 30,000  Level FlightAware
09:48AM 34.0430 -116.2370 260° West 424 488 30,000  Level FlightAware
09:48AM 34.0403 -116.2550 260° West 30,000  Level FlightAware ADS-B
09:49AM 34.0265 -116.3435 259° West 424 488 30,000 -180 Level FlightAware ADS-B
09:49AM 34.0119 -116.4409 260° West 426 490 29,800 -1,380 Descending FlightAware ADS-B
09:50AM 34.0023 -116.5182 261° West 424 488 28,400 -2,820 Descending FlightAware ADS-B
09:50AM 33.9967 -116.5905 265° West 419 482 26,800 -2,940 Descending FlightAware ADS-B
09:51AM 33.9916 -116.6598 265° West 415 478 25,500 -2,820 Descending FlightAware ADS-B
09:51AM 33.9912 -116.6645 265° West 405 466 24,000 -3,300 Descending FlightAware ADS-B
09:52AM 33.9808 -116.7924 264° West 400 460 22,200 -3,300 Descending FlightAware ADS-B
09:53AM 33.9735 -116.8832 264° West 396 456 20,100 -3,000 Descending FlightAware ADS-B
09:53AM 33.9683 -116.9481 264° West 386 444 18,700 -2,220 Descending FlightAware ADS-B
09:54AM 33.9621 -117.0238 264° West 360 414 17,600 -1,320 Descending FlightAware ADS-B
09:54AM 33.9550 -117.1010 264° West 339 390 17,100 -900 Descending FlightAware
09:54AM 33.9581 -117.0709 83° East 338 389 17,000 -1,380 Descending FlightAware ADS-B
09:55AM 33.9498 -117.1685 264° West 338 389 16,300 -1,500 Descending FlightAware ADS-B
09:56AM 33.9450 -117.2290 265° West 328 377 15,400 -2,100 Descending FlightAware
09:56AM 33.9400 -117.2930 265° West 367 422 14,000 -1,260 Descending FlightAware
09:57AM 33.9350 -117.3600 265° West 385 443 14,000  Level FlightAware
09:57AM 33.9440 -117.4090 282° West 375 432 14,000 -1,320 Level FlightAware
09:58AM 33.9670 -117.4720 294° West 376 433 12,800 -2,280 Descending FlightAware
09:58AM 33.9920 -117.5410 294° West 369 425 11,400 -1,920 Descending FlightAware
09:59AM 34.0110 -117.5970 292° West 349 402 10,700 -1,320 Descending FlightAware
09:59AM 34.0130 -117.6140 278° West 348 400 10,600 -1,020 Descending FlightAware
09:59AM 34.0070 -117.6880 264° West 323 372 9,900 -1,200 Descending FlightAware
10:00AM 34.0030 -117.7260 263° West 317 365 9,400 -1,500 Descending FlightAware
10:00AM 34.0000 -117.7600 264° West 311 358 8,900 -1,200 Descending FlightAware
10:01AM 33.9960 -117.7950 262° West 296 341 8,600 -1,020 Descending FlightAware
10:01AM 33.9920 -117.8310 262° West 289 333 8,200 -1,080 Descending FlightAware
10:01AM 33.9900 -117.8580 265° West 282 325 7,900 -1,260 Descending FlightAware
10:02AM 33.9860 -117.8920 262° West 278 320 7,400 -1,620 Descending FlightAware
10:02AM 33.9820 -117.9290 263° West 278 320 6,700 -1,740 Descending FlightAware
10:02AM 33.9790 -117.9610 264° West 277 319 6,100 -1,740 Descending FlightAware
10:03AM 33.9760 -117.9890 263° West 278 320 5,600 -1,500 Descending FlightAware
10:03AM 33.9730 -118.0240 264° West 274 315 5,100 -840 Descending FlightAware
10:03AM 33.9700 -118.0550 263° West 268 308 5,000 -180 Descending FlightAware
10:04AM 33.9670 -118.0890 264° West 256 295 5,000 -420 Level FlightAware
10:04AM 33.9640 -118.1170 263° West 244 281 4,700 -1,200 Descending FlightAware
10:04AM 33.9610 -118.1440 262° West 236 272 4,200 -1,380 Descending FlightAware
10:05AM 33.9580 -118.1750 263° West 231 266 3,700 -1,440 Descending FlightAware
10:05AM 33.9560 -118.1990 264° West 220 253 3,200 -1,500 Descending FlightAware
10:05AM 33.9540 -118.2180 263° West 200 230 2,800 -1,200 Descending FlightAware
10:06AM 33.9510 -118.2440 262° West 185 213 2,400 -1,080 Descending FlightAware
10:06AM 33.9490 -118.2700 265° West 175 201 1,900 -900 Descending FlightAware
10:07AM 33.9470 -118.2870 262° West 154 177 1,700 -720 Descending FlightAware
10:07AM 33.9450 -118.3060 263° West 134 154 1,400 -720 Descending FlightAware
10:07AM 33.9440 -118.3180 264° West 133 153 1,200 -300 Descending FlightAware
10:08AM 33.9420 -118.3340 261° West 133 153 1,200 -780 Level FlightAware
10:08AM 33.9333 -118.3833 261° West 141 162 300 -660 Descending Southern California TRACON
10:09AM 33.9364 -118.4042 280° West 144 166 300  Level Los Angeles Center
10:11AM 33.9333 -118.4000 270° West  Level FlightAware Approximate
10:18AM 33.9425 -118.4081 270° West  Level Estimated